Airfield :







YOU CAN JOIN US ON...

 
LOGIN :

Register | Disclaimer

   EN    FR    IT 

 









Legend :    VFR   Marginal VFR   IFR   Intensive IFR   Very Intensive IFR
Visi :
Ceiling :
>= 8 km
>= 3000ft
5 to 8 km
1000 to 3000 ft
1500m to 5 km
500 to 1000 ft
800 to 1500m
200 to 500 ft
< 800m
< 200 ft
Symbols :   Thunderstorms  Fog  Heavy snow  Heavy precipitations  Wind > 20 kt






- Airport Elevation : 335 ft
- IATA code : BTV


KBTV - Burlington International

CURRENT METAR :
  • 161154Z 34007KT 10SM CLR M08/M14 A3022 RMK AO2 SLP240 70003 T10781144 11061 21078 52015

EXPIRED METARs :
  • 161054Z 31008KT 10SM CLR M07/M14 A3020 RMK AO2 SLP234 T10721139
  • 160954Z 29010KT 10SM CLR M07/M14 A3020 RMK AO2 SLP231 T10671139

TAF KBTV
Valid from the 16 at 12:00 until the 17 at 12:00 UTC


161120Z 1612/1712 30007KT P6SM FEW180
FM161600 27006KT P6SM SCT060
FM161800 24007KT P6SM SCT050
FM162100 21005KT P6SM SKC
FM170400 17004KT P6SM SCT100



MET'MAP, your aeronautical weather chart ! - Copyright ORBIFLY December 2007 - Disclaimer

ORBIFLY MET'MAP TEAM :

Programming & Development : Alexandra Zaïnal
Concept & original design : Baudouin d'Aumeries
Assistance for programming : Marc-Olivier Méhu
Technical & hardware support : Manuel Goepfert

Contact : metmap@orbifly.com




SOURCES & CREDITS :

   NOAA